Time;durP1;ratioP1;P1;durP2;ratioP2;P2;SDS_P1;SDS_P2;PMS_P1;PMS_P2;Temp;Humidity;BMP_temperature;BMP_pressure;BME280_temperature;BME280_humidity;BME280_pressure;Samples;Min_cycle;Max_cycle;Signal;HPM_P1;HPM_P2
2023/09/17 00:00:56;;;;;;;;;;;;;;;;;;5097736;28;19912;-88
2023/09/17 00:03:22;;;;;;;;;;;;;;;;;;5098584;28;20002;-88
2023/09/17 00:05:47;;;;;;;;;;;;;;;;;;5096494;28;20363;-88
2023/09/17 00:08:12;;;;;;;;;;;;;;;;;;5097419;28;20316;-88
2023/09/17 00:10:41;;;;;;;;;;;;;;;;;;5098290;28;20019;-88
2023/09/17 00:13:06;;;;;;;;;;;;;;;;;;5103155;27;19915;-89
2023/09/17 00:15:31;;;;;;;;;;;;;;;;;;5110070;28;20014;-90
2023/09/17 00:17:57;;;;;;;;;;;;;;;;;;5080220;28;19908;-89
2023/09/17 00:20:22;;;;;;;;;;;;;;;;;;5098827;28;19919;-88
2023/09/17 00:22:47;;;;;;;;;;;;;;;;;;5097783;28;19908;-89
2023/09/17 00:25:13;;;;;;;;;;;;;;;;;;5101218;28;19918;-88
2023/09/17 00:27:39;;;;;;;;;;;;;;;;;;5098019;28;19924;-89
2023/09/17 00:30:04;;;;;;;;;;;;;;;;;;5098274;28;19998;-89
2023/09/17 00:32:29;;;;;;;;;;;;;;;;;;5096770;28;19966;-88
2023/09/17 00:34:55;;;;;;;;;;;;;;;;;;5097143;28;19951;-88
2023/09/17 00:37:20;;;;;;;;;;;;;;;;;;5099910;28;19908;-89
2023/09/17 00:39:46;;;;;;;;;;;;;;;;;;5096814;28;20371;-88
2023/09/17 00:42:11;;;;;;;;;;;;;;;;;;5111665;28;19994;-89
2023/09/17 00:44:36;;;;;;;;;;;;;;;;;;5097538;28;20006;-89
2023/09/17 00:47:03;;;;;;;;;;;;;;;;;;5108321;28;19923;-89
2023/09/17 00:49:28;;;;;;;;;;;;;;;;;;5104227;28;20338;-89
2023/09/17 00:51:53;;;;;;;;;;;;;;;;;;5113502;28;19919;-89
2023/09/17 00:54:19;;;;;;;;;;;;;;;;;;5096191;28;19912;-89
2023/09/17 00:56:44;;;;;;;;;;;;;;;;;;5096295;28;19907;-89
2023/09/17 00:59:10;;;;;;;;;;;;;;;;;;5104460;28;19942;-88
2023/09/17 01:01:35;;;;;;;;;;;;;;;;;;5083166;28;20108;-89
2023/09/17 01:04:01;;;;;;;;;;;;;;;;;;5097577;28;19969;-89
2023/09/17 01:06:28;;;;;;;;;;;;;;;;;;5096427;28;19912;-89
2023/09/17 01:08:53;;;;;;;;;;;;;;;;;;5078413;28;20010;-88
2023/09/17 01:11:18;;;;;;;;;;;;;;;;;;5095453;28;19955;-88
2023/09/17 01:13:49;;;;;;;;;;;;;;;;;;5079300;28;19919;-89
2023/09/17 01:16:14;;;;;;;;;;;;;;;;;;5095198;28;19919;-89
2023/09/17 01:18:39;;;;;;;;;;;;;;;;;;5078864;28;19912;-89
2023/09/17 01:21:05;;;;;;;;;;;;;;;;;;5094970;28;20294;-88
2023/09/17 01:23:30;;;;;;;;;;;;;;;;;;5103259;27;19983;-89
2023/09/17 01:25:56;;;;;;;;;;;;;;;;;;5093895;28;19977;-88
2023/09/17 01:28:22;;;;;;;;;;;;;;;;;;5107795;28;19981;-89
2023/09/17 01:30:47;;;;;;;;;;;;;;;;;;5096289;28;19912;-88
2023/09/17 01:33:12;;;;;;;;;;;;;;;;;;5094825;28;19916;-88
2023/09/17 01:35:39;;;;;;;;;;;;;;;;;;5095612;28;19912;-89
2023/09/17 01:38:05;;;;;;;;;;;;;;;;;;5105355;28;19962;-88
2023/09/17 01:40:31;;;;;;;;;;;;;;;;;;5091777;28;19908;-89
2023/09/17 01:42:57;;;;;;;;;;;;;;;;;;5086264;28;19919;-88
2023/09/17 01:45:22;;;;;;;;;;;;;;;;;;5103823;28;19908;-89
2023/09/17 01:47:47;;;;;;;;;;;;;;;;;;5097477;28;19919;-89
2023/09/17 01:50:15;;;;;;;;;;;;;;;;;;5092186;28;19909;-89
2023/09/17 01:52:40;;;;;;;;;;;;;;;;;;5101500;28;19912;-89
2023/09/17 01:55:08;;;;;;;;;;;;;;;;;;5095515;28;19931;-89
2023/09/17 01:57:33;;;;;;;;;;;;;;;;;;5089090;28;19916;-88
2023/09/17 01:59:59;;;;;;;;;;;;;;;;;;5112835;28;20267;-88
2023/09/17 02:02:24;;;;;;;;;;;;;;;;;;5105552;28;19919;-88
2023/09/17 02:04:49;;;;;;;;;;;;;;;;;;5095260;28;20347;-89
2023/09/17 02:07:15;;;;;;;;;;;;;;;;;;5105520;28;19920;-88
2023/09/17 02:09:41;;;;;;;;;;;;;;;;;;5090817;28;19952;-89
2023/09/17 02:12:06;;;;;;;;;;;;;;;;;;5096503;28;19911;-89
2023/09/17 02:14:31;;;;;;;;;;;;;;;;;;5084369;28;19908;-88
2023/09/17 02:16:57;;;;;;;;;;;;;;;;;;5101448;28;19912;-89
2023/09/17 02:19:22;;;;;;;;;;;;;;;;;;5111753;27;20351;-89
2023/09/17 02:21:48;;;;;;;;;;;;;;;;;;5095031;28;19919;-89
2023/09/17 02:24:13;;;;;;;;;;;;;;;;;;5094487;28;20371;-89
2023/09/17 02:26:38;;;;;;;;;;;;;;;;;;5094969;28;20293;-90
2023/09/17 02:29:04;;;;;;;;;;;;;;;;;;5077460;28;19939;-88
2023/09/17 02:31:29;;;;;;;;;;;;;;;;;;5073327;28;19912;-89
2023/09/17 02:33:54;;;;;;;;;;;;;;;;;;5094620;28;19912;-89
2023/09/17 02:36:20;;;;;;;;;;;;;;;;;;5093948;28;20394;-89
2023/09/17 02:38:45;;;;;;;;;;;;;;;;;;5102870;28;19908;-89
2023/09/17 02:41:10;;;;;;;;;;;;;;;;;;5109948;28;19919;-88
2023/09/17 02:43:37;;;;;;;;;;;;;;;;;;5094387;28;19943;-88
2023/09/17 02:46:03;;;;;;;;;;;;;;;;;;5109518;28;19920;-89
2023/09/17 02:48:28;;;;;;;;;;;;;;;;;;5098983;27;19913;-88
2023/09/17 02:50:54;;;;;;;;;;;;;;;;;;5092077;28;19919;-89
2023/09/17 02:53:19;;;;;;;;;;;;;;;;;;5098394;28;19908;-89
2023/09/17 02:55:45;;;;;;;;;;;;;;;;;;5094178;28;19912;-88
2023/09/17 02:58:10;;;;;;;;;;;;;;;;;;5094678;28;20393;-88
2023/09/17 03:00:35;;;;;;;;;;;;;;;;;;5092826;28;19919;-88
2023/09/17 03:03:01;;;;;;;;;;;;;;;;;;5099624;28;19913;-88
2023/09/17 03:05:26;;;;;;;;;;;;;;;;;;5094775;28;19965;-89
2023/09/17 03:07:58;;;;;;;;;;;;;;;;;;5104575;27;20319;-89
2023/09/17 03:10:24;;;;;;;;;;;;;;;;;;5109047;28;20083;-89
2023/09/17 03:12:52;;;;;;;;;;;;;;;;;;5088797;28;19907;-88
2023/09/17 03:15:17;;;;;;;;;;;;;;;;;;5093114;28;19999;-88
2023/09/17 03:17:43;;;;;;;;;;;;;;;;;;5094158;28;20297;-89
2023/09/17 03:20:18;;;;;;;;;;;;;;;;;;5077868;28;20351;-89
2023/09/17 03:22:43;;;;;;;;;;;;;;;;;;5094608;28;19916;-90
2023/09/17 03:25:09;;;;;;;;;;;;;;;;;;5097379;28;19908;-88
2023/09/17 03:27:35;;;;;;;;;;;;;;;;;;5092461;28;19942;-89
2023/09/17 03:30:03;;;;;;;;;;;;;;;;;;5075158;28;19908;-88
2023/09/17 03:32:28;;;;;;;;;;;;;;;;;;5074103;28;19920;-86
2023/09/17 03:34:54;;;;;;;;;;;;;;;;;;5102450;28;19943;-89
2023/09/17 03:37:20;;;;;;;;;;;;;;;;;;5109923;28;19912;-88
2023/09/17 03:39:45;;;;;;;;;;;;;;;;;;5107996;28;19931;-87
2023/09/17 03:42:10;;;;;;;;;;;;;;;;;;5092621;28;19912;-87
2023/09/17 03:44:36;;;;;;;;;;;;;;;;;;5089341;28;20267;-87
2023/09/17 03:47:03;;;;;;;;;;;;;;;;;;5093950;28;19916;-88
2023/09/17 03:49:28;;;;;;;;;;;;;;;;;;5093495;28;19927;-88
2023/09/17 03:51:54;;;;;;;;;;;;;;;;;;5100817;28;19912;-88
2023/09/17 03:54:19;;;;;;;;;;;;;;;;;;5110845;28;19931;-88
2023/09/17 03:56:45;;;;;;;;;;;;;;;;;;5093945;28;20203;-88
2023/09/17 03:59:11;;;;;;;;;;;;;;;;;;5102322;28;19908;-88
2023/09/17 04:01:37;;;;;;;;;;;;;;;;;;5093311;28;20010;-88
2023/09/17 04:04:03;;;;;;;;;;;;;;;;;;5076300;28;20015;-88
2023/09/17 04:06:28;;;;;;;;;;;;;;;;;;5092412;28;20096;-88
2023/09/17 04:08:54;;;;;;;;;;;;;;;;;;5093148;28;19907;-89
2023/09/17 04:11:19;;;;;;;;;;;;;;;;;;5092304;28;19918;-89
2023/09/17 04:13:45;;;;;;;;;;;;;;;;;;5104944;28;19915;-88
2023/09/17 04:16:10;;;;;;;;;;;;;;;;;;5093040;28;20051;-88
2023/09/17 04:18:35;;;;;;;;;;;;;;;;;;5076189;28;19908;-88
2023/09/17 04:21:01;;;;;;;;;;;;;;;;;;5089431;28;19912;-88
2023/09/17 04:23:26;;;;;;;;;;;;;;;;;;5100163;28;19915;-88
2023/09/17 04:25:52;;;;;;;;;;;;;;;;;;5091702;28;19939;-88
2023/09/17 04:28:19;;;;;;;;;;;;;;;;;;5122552;28;19942;-87
2023/09/17 04:30:44;;;;;;;;;;;;;;;;;;5103630;28;20396;-88
2023/09/17 04:33:09;;;;;;;;;;;;;;;;;;5090106;28;19949;-88
2023/09/17 04:35:35;;;;;;;;;;;;;;;;;;5108590;28;19911;-89
2023/09/17 04:38:01;;;;;;;;;;;;;;;;;;5090444;28;20062;-88
2023/09/17 04:40:29;;;;;;;;;;;;;;;;;;5099537;28;20011;-87
2023/09/17 04:42:56;;;;;;;;;;;;;;;;;;5123647;27;19908;-89
2023/09/17 04:45:21;;;;;;;;;;;;;;;;;;5108620;28;19918;-88
2023/09/17 04:47:48;;;;;;;;;;;;;;;;;;5080280;28;19918;-89
2023/09/17 04:50:13;;;;;;;;;;;;;;;;;;5093724;28;19919;-89
2023/09/17 04:52:38;;;;;;;;;;;;;;;;;;5095348;28;19911;-87
2023/09/17 04:55:04;;;;;;;;;;;;;;;;;;5112648;27;19918;-88
2023/09/17 04:57:29;;;;;;;;;;;;;;;;;;5095909;27;19929;-88
2023/09/17 04:59:55;;;;;;;;;;;;;;;;;;5089980;28;19916;-88
2023/09/17 05:02:21;;;;;;;;;;;;;;;;;;5079898;28;19908;-87
2023/09/17 05:04:47;;;;;;;;;;;;;;;;;;5112881;28;19919;-88
2023/09/17 05:07:12;;;;;;;;;;;;;;;;;;5097125;28;20738;-88
2023/09/17 05:09:37;;;;;;;;;;;;;;;;;;5095407;28;19919;-88
2023/09/17 05:12:03;;;;;;;;;;;;;;;;;;5078213;28;19908;-88
2023/09/17 05:14:28;;;;;;;;;;;;;;;;;;5077823;28;19916;-87
2023/09/17 05:16:54;;;;;;;;;;;;;;;;;;5078634;28;20424;-88
2023/09/17 05:19:20;;;;;;;;;;;;;;;;;;5103731;28;19912;-88
2023/09/17 05:21:45;;;;;;;;;;;;;;;;;;5108961;27;19908;-87
2023/09/17 05:24:11;;;;;;;;;;;;;;;;;;5093745;28;19977;-88
2023/09/17 05:26:36;;;;;;;;;;;;;;;;;;5107981;28;19931;-88
2023/09/17 05:29:02;;;;;;;;;;;;;;;;;;5090762;28;19913;-87
2023/09/17 05:31:27;;;;;;;;;;;;;;;;;;5097267;28;19907;-88
2023/09/17 05:33:53;;;;;;;;;;;;;;;;;;5090599;28;20003;-89
2023/09/17 05:36:18;;;;;;;;;;;;;;;;;;5068121;28;19912;-87
2023/09/17 05:38:44;;;;;;;;;;;;;;;;;;5097074;28;20310;-90
2023/09/17 05:41:11;;;;;;;;;;;;;;;;;;5113522;27;19953;-87
2023/09/17 05:43:38;;;;;;;;;;;;;;;;;;5111709;28;20354;-89
2023/09/17 05:46:03;;;;;;;;;;;;;;;;;;5108484;28;19942;-87
2023/09/17 05:48:54;;;;;;;;;;;;;;;;;;5095138;28;19919;-88
2023/09/17 05:51:19;;;;;;;;;;;;;;;;;;5078537;28;20370;-87
2023/09/17 05:53:45;;;;;;;;;;;;;;;;;;5091243;28;20715;-89
2023/09/17 05:56:11;;;;;;;;;;;;;;;;;;5094244;28;19912;-87
2023/09/17 05:58:36;;;;;;;;;;;;;;;;;;5087481;28;19912;-89
2023/09/17 06:01:04;;;;;;;;;;;;;;;;;;5098004;28;19920;-88
2023/09/17 06:03:30;;;;;;;;;;;;;;;;;;5085848;28;19939;-88
2023/09/17 06:05:55;;;;;;;;;;;;;;;;;;5075151;28;19927;-88
2023/09/17 06:08:21;;;;;;;;;;;;;;;;;;5091910;28;19999;-88
2023/09/17 06:10:46;;;;;;;;;;;;;;;;;;5093365;28;20411;-86
2023/09/17 06:13:12;;;;;;;;;;;;;;;;;;5075807;28;19908;-86
2023/09/17 06:15:37;;;;;;;;;;;;;;;;;;5077075;28;19916;-88
2023/09/17 06:18:02;;;;;;;;;;;;;;;;;;5077471;28;20217;-88
2023/09/17 06:20:28;;;;;;;;;;;;;;;;;;5105063;28;20275;-88
2023/09/17 06:22:54;;;;;;;;;;;;;;;;;;5099111;28;20298;-88
2023/09/17 06:25:19;;;;;;;;;;;;;;;;;;5100294;27;19914;-87
2023/09/17 06:27:45;;;;;;;;;;;;;;;;;;5088546;28;19995;-86
2023/09/17 06:30:11;;;;;;;;;;;;;;;;;;5094979;28;19912;-87
2023/09/17 06:32:36;;;;;;;;;;;;;;;;;;5093596;28;20044;-88
2023/09/17 06:35:02;;;;;;;;;;;;;;;;;;5109986;28;20362;-88
2023/09/17 06:37:28;;;;;;;;;;;;;;;;;;5103531;27;19908;-88
2023/09/17 06:39:54;;;;;;;;;;;;;;;;;;5107707;27;20364;-89
2023/09/17 06:42:19;;;;;;;;;;;;;;;;;;5078131;28;20295;-88
2023/09/17 06:44:45;;;;;;;;;;;;;;;;;;5095238;28;19912;-87
2023/09/17 06:47:10;;;;;;;;;;;;;;;;;;5092250;28;19916;-87
2023/09/17 06:49:36;;;;;;;;;;;;;;;;;;5096765;28;19919;-89
2023/09/17 06:52:01;;;;;;;;;;;;;;;;;;5092540;28;19912;-88
2023/09/17 06:54:26;;;;;;;;;;;;;;;;;;5094221;28;20367;-88
2023/09/17 06:56:52;;;;;;;;;;;;;;;;;;5094661;28;19983;-89
2023/09/17 06:59:17;;;;;;;;;;;;;;;;;;5095622;28;19912;-88
2023/09/17 07:01:45;;;;;;;;;;;;;;;;;;5075613;28;19908;-89
2023/09/17 07:04:10;;;;;;;;;;;;;;;;;;5094246;28;19916;-88
2023/09/17 07:06:36;;;;;;;;;;;;;;;;;;5092939;28;19958;-88
2023/09/17 07:09:01;;;;;;;;;;;;;;;;;;5095807;28;19912;-89
2023/09/17 07:11:27;;;;;;;;;;;;;;;;;;5094969;28;19908;-88
2023/09/17 07:13:52;;;;;;;;;;;;;;;;;;5103799;28;20037;-88
2023/09/17 07:16:18;;;;;;;;;;;;;;;;;;5102064;28;19908;-87
2023/09/17 07:18:44;;;;;;;;;;;;;;;;;;5108790;28;19912;-88
2023/09/17 07:21:09;;;;;;;;;;;;;;;;;;5110970;28;19939;-88
2023/09/17 07:23:35;;;;;;;;;;;;;;;;;;5118119;27;19908;-88
2023/09/17 07:26:02;;;;;;;;;;;;;;;;;;5097922;28;19920;-88
2023/09/17 07:28:27;;;;;;;;;;;;;;;;;;5095402;28;19911;-88
2023/09/17 07:30:57;;;;;;;;;;;;;;;;;;5092577;28;19930;-89
2023/09/17 07:33:22;;;;;;;;;;;;;;;;;;5085351;28;20335;-89
2023/09/17 07:35:48;;;;;;;;;;;;;;;;;;5094444;28;19958;-87
2023/09/17 07:38:13;;;;;;;;;;;;;;;;;;5086821;28;19908;-89
2023/09/17 07:40:38;;;;;;;;;;;;;;;;;;5096334;28;19916;-89
2023/09/17 07:43:04;;;;;;;;;;;;;;;;;;5094433;28;19912;-89
2023/09/17 07:45:33;;;;;;;;;;;;;;;;;;5094626;28;19955;-89
2023/09/17 07:47:59;;;;;;;;;;;;;;;;;;5094759;28;20035;-88
2023/09/17 07:50:24;;;;;;;;;;;;;;;;;;5098696;28;20436;-89
2023/09/17 07:52:49;;;;;;;;;;;;;;;;;;5084760;28;19908;-88
2023/09/17 07:55:18;;;;;;;;;;;;;;;;;;5100701;28;19934;-88
2023/09/17 07:57:44;;;;;;;;;;;;;;;;;;5087402;28;19908;-88
2023/09/17 08:00:10;;;;;;;;;;;;;;;;;;5093869;28;20299;-87
2023/09/17 08:02:38;;;;;;;;;;;;;;;;;;5095034;28;20360;-88
2023/09/17 08:05:03;;;;;;;;;;;;;;;;;;5095633;28;19916;-89
2023/09/17 08:07:28;;;;;;;;;;;;;;;;;;5115234;28;20386;-89
2023/09/17 08:09:54;;;;;;;;;;;;;;;;;;5096984;28;19912;-90
2023/09/17 08:12:19;;;;;;;;;;;;;;;;;;5102253;28;20386;-90
2023/09/17 08:14:45;;;;;;;;;;;;;;;;;;5098294;28;20329;-89
2023/09/17 08:17:10;;;;;;;;;;;;;;;;;;5115869;27;20366;-90
2023/09/17 08:19:36;;;;;;;;;;;;;;;;;;5096456;28;19911;-90
2023/09/17 08:22:01;;;;;;;;;;;;;;;;;;5105444;28;19908;-91
2023/09/17 08:24:26;;;;;;;;;;;;;;;;;;5109292;28;19981;-91
2023/09/17 08:26:52;;;;;;;;;;;;;;;;;;5099350;28;20287;-90
2023/09/17 08:29:20;;;;;;;;;;;;;;;;;;5100510;28;19928;-91
2023/09/17 08:31:45;;;;;;;;;;;;;;;;;;5102954;28;19908;-91
2023/09/17 08:34:10;;;;;;;;;;;;;;;;;;5096565;28;19912;-91
2023/09/17 08:36:36;;;;;;;;;;;;;;;;;;5111493;28;19908;-90
2023/09/17 08:39:03;;;;;;;;;;;;;;;;;;5095361;28;20381;-90
2023/09/17 08:41:29;;;;;;;;;;;;;;;;;;5109611;28;19919;-89
2023/09/17 08:43:54;;;;;;;;;;;;;;;;;;5102374;28;19959;-89
2023/09/17 08:46:23;;;;;;;;;;;;;;;;;;5093805;28;19919;-90
2023/09/17 08:48:48;;;;;;;;;;;;;;;;;;5097216;28;19916;-90
2023/09/17 08:51:14;;;;;;;;;;;;;;;;;;5114184;28;19915;-90
2023/09/17 08:53:40;;;;;;;;;;;;;;;;;;5096620;28;20758;-89
2023/09/17 08:56:06;;;;;;;;;;;;;;;;;;5098296;28;19908;-90
2023/09/17 08:58:32;;;;;;;;;;;;;;;;;;5080282;28;20008;-91
2023/09/17 09:00:58;;;;;;;;;;;;;;;;;;5093423;28;19935;-90
2023/09/17 09:03:23;;;;;;;;;;;;;;;;;;5095713;28;19912;-89
2023/09/17 09:05:50;;;;;;;;;;;;;;;;;;5098299;28;19923;-90
2023/09/17 09:08:15;;;;;;;;;;;;;;;;;;5097455;28;19918;-90
2023/09/17 09:10:41;;;;;;;;;;;;;;;;;;5097693;28;19908;-90
2023/09/17 09:13:06;;;;;;;;;;;;;;;;;;5087873;28;19912;-89
2023/09/17 09:15:31;;;;;;;;;;;;;;;;;;5097376;28;20343;-89
2023/09/17 09:17:57;;;;;;;;;;;;;;;;;;5092934;28;19912;-89
2023/09/17 09:20:22;;;;;;;;;;;;;;;;;;5089178;28;19980;-90
2023/09/17 09:22:47;;;;;;;;;;;;;;;;;;5098595;28;19912;-89
2023/09/17 09:25:13;;;;;;;;;;;;;;;;;;5096843;28;20012;-89
2023/09/17 09:27:38;;;;;;;;;;;;;;;;;;5092121;28;20452;-88
2023/09/17 09:30:04;;;;;;;;;;;;;;;;;;5111887;28;20266;-90
2023/09/17 09:32:30;;;;;;;;;;;;;;;;;;5095550;28;20357;-77
2023/09/17 09:34:55;;;;;;;;;;;;;;;;;;5093146;28;19939;-77
2023/09/17 09:37:24;;;;;;;;;;;;;;;;;;5092581;28;19936;-77
2023/09/17 09:39:49;;;;;;;;;;;;;;;;;;5087562;28;19962;-78
2023/09/17 09:42:15;;;;;;;;;;;;;;;;;;5092379;28;19943;-78
2023/09/17 09:44:40;;;;;;;;;;;;;;;;;;5091578;28;19999;-77
2023/09/17 09:47:06;;;;;;;;;;;;;;;;;;5091602;28;19920;-79
2023/09/17 09:49:31;;;;;;;;;;;;;;;;;;5091690;28;20394;-79
2023/09/17 09:51:56;;;;;;;;;;;;;;;;;;5092135;28;19962;-78
2023/09/17 09:54:22;;;;;;;;;;;;;;;;;;5092368;28;20362;-77
2023/09/17 09:56:50;;;;;;;;;;;;;;;;;;5091879;28;19916;-77
2023/09/17 09:59:16;;;;;;;;;;;;;;;;;;5091555;28;20371;-78
2023/09/17 10:01:41;;;;;;;;;;;;;;;;;;5085378;28;19915;-77
2023/09/17 10:04:06;;;;;;;;;;;;;;;;;;5093276;28;20393;-78
2023/09/17 10:06:32;;;;;;;;;;;;;;;;;;5092980;28;19920;-79
2023/09/17 10:08:58;;;;;;;;;;;;;;;;;;5108037;28;19908;-79
2023/09/17 10:11:23;;;;;;;;;;;;;;;;;;5090942;28;19934;-78
2023/09/17 10:13:48;;;;;;;;;;;;;;;;;;5092327;28;20410;-78
2023/09/17 10:16:14;;;;;;;;;;;;;;;;;;5092591;28;19968;-78
2023/09/17 10:18:40;;;;;;;;;;;;;;;;;;5092312;28;19918;-78
2023/09/17 10:21:06;;;;;;;;;;;;;;;;;;5085672;28;19912;-78
2023/09/17 10:23:31;;;;;;;;;;;;;;;;;;5090790;28;19915;-77
2023/09/17 10:25:58;;;;;;;;;;;;;;;;;;5091626;28;19957;-77
2023/09/17 10:28:23;;;;;;;;;;;;;;;;;;5090317;28;19915;-79
2023/09/17 10:30:48;;;;;;;;;;;;;;;;;;5107416;28;19916;-78
2023/09/17 10:33:13;;;;;;;;;;;;;;;;;;5090886;28;19998;-79
2023/09/17 10:35:39;;;;;;;;;;;;;;;;;;5091700;28;20040;-79
2023/09/17 10:38:05;;;;;;;;;;;;;;;;;;5091384;28;19994;-78
2023/09/17 10:40:31;;;;;;;;;;;;;;;;;;5088658;28;19911;-78
2023/09/17 10:42:57;;;;;;;;;;;;;;;;;;5090298;28;19998;-79
2023/09/17 10:45:22;;;;;;;;;;;;;;;;;;5089101;28;19919;-77
2023/09/17 10:47:47;;;;;;;;;;;;;;;;;;5090527;28;19912;-77
2023/09/17 10:50:13;;;;;;;;;;;;;;;;;;5090474;28;19981;-77
2023/09/17 10:52:39;;;;;;;;;;;;;;;;;;5090645;28;20026;-78
2023/09/17 10:55:07;;;;;;;;;;;;;;;;;;5091965;28;20389;-78
2023/09/17 10:57:32;;;;;;;;;;;;;;;;;;5079775;28;19933;-77
2023/09/17 10:59:58;;;;;;;;;;;;;;;;;;5091309;28;19912;-79
2023/09/17 11:02:23;;;;;;;;;;;;;;;;;;5091720;28;19915;-79
2023/09/17 11:04:48;;;;;;;;;;;;;;;;;;5103494;28;19916;-76
2023/09/17 11:07:14;;;;;;;;;;;;;;;;;;5088636;28;19978;-77
2023/09/17 11:09:39;;;;;;;;;;;;;;;;;;5095763;28;19912;-78
2023/09/17 11:12:04;;;;;;;;;;;;;;;;;;5084538;28;19908;-78
2023/09/17 11:14:30;;;;;;;;;;;;;;;;;;5079927;28;20360;-78
2023/09/17 11:16:55;;;;;;;;;;;;;;;;;;5084484;28;19907;-78
2023/09/17 11:19:21;;;;;;;;;;;;;;;;;;5096624;28;19918;-78
2023/09/17 11:21:46;;;;;;;;;;;;;;;;;;5088957;28;19976;-78
2023/09/17 11:24:12;;;;;;;;;;;;;;;;;;5091475;28;19919;-78
2023/09/17 11:26:37;;;;;;;;;;;;;;;;;;5086582;28;19920;-78
2023/09/17 11:29:03;;;;;;;;;;;;;;;;;;5098872;28;19912;-78
2023/09/17 11:31:29;;;;;;;;;;;;;;;;;;5087408;28;19916;-78
2023/09/17 11:33:54;;;;;;;;;;;;;;;;;;5090944;28;20349;-78
2023/09/17 11:36:19;;;;;;;;;;;;;;;;;;5086337;28;19911;-78
2023/09/17 11:38:46;;;;;;;;;;;;;;;;;;5089687;28;19938;-78
2023/09/17 11:41:11;;;;;;;;;;;;;;;;;;5073153;28;19950;-78
2023/09/17 11:43:37;;;;;;;;;;;;;;;;;;5092901;28;20670;-79
2023/09/17 11:46:04;;;;;;;;;;;;;;;;;;5094601;28;19951;-78
2023/09/17 11:48:29;;;;;;;;;;;;;;;;;;5094857;28;20290;-78
2023/09/17 11:50:54;;;;;;;;;;;;;;;;;;5094377;28;19912;-78
2023/09/17 11:53:20;;;;;;;;;;;;;;;;;;5094986;28;19912;-80
2023/09/17 11:55:49;;;;;;;;;;;;;;;;;;5095754;28;20201;-79
2023/09/17 11:58:15;;;;;;;;;;;;;;;;;;5095069;28;19954;-78
2023/09/17 12:00:40;;;;;;;;;;;;;;;;;;5095411;28;19943;-79
2023/09/17 12:03:05;;;;;;;;;;;;;;;;;;5094960;28;19912;-76
2023/09/17 12:05:31;;;;;;;;;;;;;;;;;;5099991;28;19918;-79
2023/09/17 12:07:56;;;;;;;;;;;;;;;;;;5099817;28;19977;-76
2023/09/17 12:10:26;;;;;;;;;;;;;;;;;;5095208;28;20012;-79
2023/09/17 12:12:52;;;;;;;;;;;;;;;;;;5094117;28;20351;-79
2023/09/17 12:15:18;;;;;;;;;;;;;;;;;;5095812;28;19986;-78
2023/09/17 12:17:44;;;;;;;;;;;;;;;;;;5094965;28;19911;-78
2023/09/17 12:20:30;;;;;;;;;;;;;;;;;;5095095;28;20707;-78
2023/09/17 12:22:56;;;;;;;;;;;;;;;;;;5095432;28;20361;-78
2023/09/17 12:25:22;;;;;;;;;;;;;;;;;;5094825;28;19908;-78
2023/09/17 12:27:47;;;;;;;;;;;;;;;;;;5093957;28;20362;-78
2023/09/17 12:30:12;;;;;;;;;;;;;;;;;;5110315;28;19915;-78
2023/09/17 12:32:38;;;;;;;;;;;;;;;;;;5101730;28;19919;-79
2023/09/17 12:35:04;;;;;;;;;;;;;;;;;;5092838;28;20337;-79
2023/09/17 12:37:29;;;;;;;;;;;;;;;;;;5117034;27;19919;-79
2023/09/17 12:39:54;;;;;;;;;;;;;;;;;;5093880;28;20002;-79
2023/09/17 12:42:24;;;;;;;;;;;;;;;;;;5094081;28;20030;-79
2023/09/17 12:44:49;;;;;;;;;;;;;;;;;;5093762;28;20000;-77
2023/09/17 12:47:15;;;;;;;;;;;;;;;;;;5093298;28;20409;-77
2023/09/17 12:49:40;;;;;;;;;;;;;;;;;;5094053;28;20364;-77
2023/09/17 12:52:05;;;;;;;;;;;;;;;;;;5093410;28;20010;-78
2023/09/17 12:54:31;;;;;;;;;;;;;;;;;;5074067;28;20330;-77
2023/09/17 12:56:56;;;;;;;;;;;;;;;;;;5093758;28;19912;-78
2023/09/17 12:59:21;;;;;;;;;;;;;;;;;;5093140;28;19916;-79
2023/09/17 13:01:46;;;;;;;;;;;;;;;;;;5093929;28;19939;-79
2023/09/17 13:04:12;;;;;;;;;;;;;;;;;;5094394;28;19908;-77
2023/09/17 13:06:38;;;;;;;;;;;;;;;;;;5093422;28;19973;-78
2023/09/17 13:09:03;;;;;;;;;;;;;;;;;;5093720;28;19908;-79
2023/09/17 13:11:28;;;;;;;;;;;;;;;;;;5109373;28;19962;-79
2023/09/17 13:13:56;;;;;;;;;;;;;;;;;;5090993;28;19908;-79
2023/09/17 13:16:22;;;;;;;;;;;;;;;;;;5093983;28;19912;-78
2023/09/17 13:18:47;;;;;;;;;;;;;;;;;;5094270;28;19908;-78
2023/09/17 13:21:12;;;;;;;;;;;;;;;;;;5093402;28;19976;-77
2023/09/17 13:23:38;;;;;;;;;;;;;;;;;;5094462;28;19915;-79
2023/09/17 13:26:03;;;;;;;;;;;;;;;;;;5093167;28;19957;-78
2023/09/17 13:28:28;;;;;;;;;;;;;;;;;;5093470;28;20394;-79
2023/09/17 13:30:54;;;;;;;;;;;;;;;;;;5100869;28;19961;-79
2023/09/17 13:33:19;;;;;;;;;;;;;;;;;;5098177;28;20275;-77
2023/09/17 13:35:44;;;;;;;;;;;;;;;;;;5097115;28;20521;-77
2023/09/17 13:38:10;;;;;;;;;;;;;;;;;;5092976;28;19992;-77
2023/09/17 13:40:35;;;;;;;;;;;;;;;;;;5092231;28;19912;-78
2023/09/17 13:43:01;;;;;;;;;;;;;;;;;;5093233;28;19908;-79
2023/09/17 13:45:26;;;;;;;;;;;;;;;;;;5092041;28;20374;-77
2023/09/17 13:47:52;;;;;;;;;;;;;;;;;;5091315;28;19918;-79
2023/09/17 13:50:18;;;;;;;;;;;;;;;;;;5092921;28;20317;-76
2023/09/17 13:52:43;;;;;;;;;;;;;;;;;;5094183;28;19930;-79
2023/09/17 13:55:08;;;;;;;;;;;;;;;;;;5092329;28;19916;-79
2023/09/17 13:57:34;;;;;;;;;;;;;;;;;;5092893;28;19908;-79
2023/09/17 13:59:59;;;;;;;;;;;;;;;;;;5091328;28;19919;-79
2023/09/17 14:02:24;;;;;;;;;;;;;;;;;;5113798;27;20439;-79
2023/09/17 14:04:50;;;;;;;;;;;;;;;;;;5097523;28;19912;-78
2023/09/17 14:07:15;;;;;;;;;;;;;;;;;;5093082;28;19916;-79
2023/09/17 14:09:40;;;;;;;;;;;;;;;;;;5092316;28;20051;-78
2023/09/17 14:12:08;;;;;;;;;;;;;;;;;;5092237;28;19957;-78
2023/09/17 14:14:33;;;;;;;;;;;;;;;;;;5092178;28;19919;-78
2023/09/17 14:16:58;;;;;;;;;;;;;;;;;;5092259;28;19912;-79
2023/09/17 14:19:24;;;;;;;;;;;;;;;;;;5092314;28;19923;-79
2023/09/17 14:21:49;;;;;;;;;;;;;;;;;;5091060;28;19908;-79
2023/09/17 14:24:14;;;;;;;;;;;;;;;;;;5107461;28;19912;-79
2023/09/17 14:26:39;;;;;;;;;;;;;;;;;;5091834;28;19924;-79
2023/09/17 14:29:05;;;;;;;;;;;;;;;;;;5091983;28;19973;-79
2023/09/17 14:31:30;;;;;;;;;;;;;;;;;;5092320;28;19912;-79
2023/09/17 14:33:56;;;;;;;;;;;;;;;;;;5091693;28;20290;-78
2023/09/17 14:36:22;;;;;;;;;;;;;;;;;;5085887;28;20298;-79
2023/09/17 14:38:47;;;;;;;;;;;;;;;;;;5091901;28;19912;-78
2023/09/17 14:41:12;;;;;;;;;;;;;;;;;;5091903;28;19931;-78
2023/09/17 14:43:38;;;;;;;;;;;;;;;;;;5091433;28;20408;-78
2023/09/17 14:46:03;;;;;;;;;;;;;;;;;;5090584;28;19961;-78
2023/09/17 14:48:28;;;;;;;;;;;;;;;;;;5091375;28;20263;-78
2023/09/17 14:50:54;;;;;;;;;;;;;;;;;;5097883;28;20414;-78
2023/09/17 14:53:19;;;;;;;;;;;;;;;;;;5091563;28;19916;-78
2023/09/17 14:55:47;;;;;;;;;;;;;;;;;;5091210;28;19908;-78
2023/09/17 14:58:13;;;;;;;;;;;;;;;;;;5077714;28;19912;-78
2023/09/17 15:00:38;;;;;;;;;;;;;;;;;;5091475;28;19914;-78
2023/09/17 15:03:04;;;;;;;;;;;;;;;;;;5092561;28;20006;-78
2023/09/17 15:05:29;;;;;;;;;;;;;;;;;;5091242;28;19912;-77
2023/09/17 15:07:54;;;;;;;;;;;;;;;;;;5096207;28;19927;-78
2023/09/17 15:10:20;;;;;;;;;;;;;;;;;;5091335;28;19915;-77
2023/09/17 15:12:47;;;;;;;;;;;;;;;;;;5091350;28;20003;-79
2023/09/17 15:15:13;;;;;;;;;;;;;;;;;;5091541;28;19935;-80
2023/09/17 15:17:38;;;;;;;;;;;;;;;;;;5090603;28;20025;-78
2023/09/17 15:20:04;;;;;;;;;;;;;;;;;;5083546;28;19930;-79
2023/09/17 15:22:29;;;;;;;;;;;;;;;;;;5091974;28;19916;-78
2023/09/17 15:24:54;;;;;;;;;;;;;;;;;;5075154;28;20290;-79
2023/09/17 15:27:20;;;;;;;;;;;;;;;;;;5088022;28;19919;-79
2023/09/17 15:29:45;;;;;;;;;;;;;;;;;;5091463;28;19907;-77
2023/09/17 15:32:11;;;;;;;;;;;;;;;;;;5082827;28;19912;-79
2023/09/17 15:34:38;;;;;;;;;;;;;;;;;;5083317;28;19961;-79
2023/09/17 15:37:03;;;;;;;;;;;;;;;;;;5094794;28;19916;-77
2023/09/17 15:39:28;;;;;;;;;;;;;;;;;;5082432;28;20330;-78
2023/09/17 15:41:54;;;;;;;;;;;;;;;;;;5090653;28;19938;-78
2023/09/17 15:44:22;;;;;;;;;;;;;;;;;;5090996;28;20375;-77
2023/09/17 15:46:47;;;;;;;;;;;;;;;;;;5089451;28;19923;-77
2023/09/17 15:49:13;;;;;;;;;;;;;;;;;;5090827;28;19908;-80
2023/09/17 15:51:38;;;;;;;;;;;;;;;;;;5090185;28;19962;-79
2023/09/17 15:54:04;;;;;;;;;;;;;;;;;;5091315;28;20383;-78
2023/09/17 15:56:29;;;;;;;;;;;;;;;;;;5088317;28;19918;-79
2023/09/17 15:58:54;;;;;;;;;;;;;;;;;;5106107;28;20765;-78
2023/09/17 16:01:20;;;;;;;;;;;;;;;;;;5090894;28;19912;-78
2023/09/17 16:03:45;;;;;;;;;;;;;;;;;;5091507;28;19908;-78
2023/09/17 16:06:11;;;;;;;;;;;;;;;;;;5088938;28;19923;-79
2023/09/17 16:08:36;;;;;;;;;;;;;;;;;;5091105;28;19915;-79
2023/09/17 16:11:01;;;;;;;;;;;;;;;;;;5086765;28;19916;-79
2023/09/17 16:13:26;;;;;;;;;;;;;;;;;;5088629;28;19908;-78
2023/09/17 16:15:52;;;;;;;;;;;;;;;;;;5088454;28;19935;-78
2023/09/17 16:18:17;;;;;;;;;;;;;;;;;;5092425;28;19931;-80
2023/09/17 16:20:42;;;;;;;;;;;;;;;;;;5090470;28;19919;-79
2023/09/17 16:23:08;;;;;;;;;;;;;;;;;;5090727;28;20374;-79
2023/09/17 16:25:33;;;;;;;;;;;;;;;;;;5087869;28;19912;-77
2023/09/17 16:27:58;;;;;;;;;;;;;;;;;;5098376;28;20056;-78
2023/09/17 16:30:24;;;;;;;;;;;;;;;;;;5090443;28;20790;-77
2023/09/17 16:32:49;;;;;;;;;;;;;;;;;;5094306;28;19943;-79
2023/09/17 16:35:14;;;;;;;;;;;;;;;;;;5092644;28;20011;-79